Penfield, Pennsylvania
Current Conditions -  °F | °C
As of 4:54 AM on Monday 22 Dec 2014 (Local Time) from KFIG Reporting Station
Clear Clear  
Wind Chill:   Ceiling: Unl
Heat Index: 20°   Visibility: 10mi
Dew Point: 18°   Wind: 9mph
Humidity: 92%   Direction: 50°NE
Pressure: 30.18"   Gusts: NA
Location:  41.21°N, 78.58°W
Report Text: KFIG 220954Z AUTO 05008KT 10SM CLR M07/M08 A3018 RMK AO2 SLP242 T10671078
Loading
Personal Weather Stations






























Interactive Weather Map New forecast layout! Learn more

10-Day Weather Forecast

Advertisements
Track Severe Weather on mobile